Flight Track Log - Related Links

Times and Time Zones

All times are in EST time to prevent confusion due to time zone crossing. See the N7526A flight status page for this flight to view local times or setup timezone preferences in your user account.

Time Position Orientation Groundspeed Altitude Reporting Facility
EST Latitude Longitude Course Direction KTS MPH feet Rate Location/Type
Sun 08:30:32 PM 36.1000 -86.6833 270° West 158 182 1,400  Level Nashville TRACON
Sun 08:31:32 PM 36.1000 -86.7500 267° West 222 255 3,700 2,906 Climbing Nashville TRACON
Sun 08:32:40 PM 36.0964 -86.8481 272° West 252 290 7,600 3,328 Climbing Memphis Center
Sun 08:33:40 PM 36.0992 -86.9483 271° West 257 296 10,800 2,850 Climbing Memphis Center
Sun 08:34:40 PM 36.1000 -87.0536 269° West 292 336 13,300 2,900 Climbing Memphis Center
Sun 08:35:40 PM 36.0986 -87.1639 272° West 318 366 16,600 2,850 Climbing Memphis Center
Sun 08:36:40 PM 36.1014 -87.2744 273° West 329 379 19,000 2,300 Climbing Memphis Center
Sun 08:37:40 PM 36.1064 -87.3872 272° West 329 379 21,200 1,700 Climbing Memphis Center
Sun 08:38:40 PM 36.1092 -87.5103 272° West 345 397 22,400 1,500 Climbing Memphis Center
Sun 08:39:40 PM 36.1122 -87.6464 259° West 380 437 24,200 1,650 Climbing Memphis Center
Sun 08:40:40 PM 36.0939 -87.7628 250° West 385 443 25,700 1,800 Climbing Memphis Center
Sun 08:41:40 PM 36.0569 -87.8897 250° West 398 458 27,800 2,000 Climbing Memphis Center
Sun 08:42:40 PM 36.0197 -88.0192 252° West 404 465 29,700 1,100 Climbing Memphis Center
Sun 08:43:40 PM 35.9847 -88.1536 250° West 397 457 30,000 150 Climbing Memphis Center
Sun 08:44:40 PM 35.9472 -88.2800 252° West 387 445 30,000  Level Memphis Center
Sun 08:45:40 PM 35.9139 -88.4039 249° West 387 445 30,000  Level Memphis Center
Sun 08:46:40 PM 35.8761 -88.5278 251° West 387 445 30,000  Level Memphis Center
Sun 08:47:40 PM 35.8403 -88.6567 249° West 392 451 30,000  Level Memphis Center
Sun 08:48:40 PM 35.8025 -88.7803 251° West 392 451 30,000  Level Memphis Center
Sun 08:49:40 PM 35.7664 -88.9064 249° West 392 451 30,000  Level Memphis Center
Sun 08:50:40 PM 35.7281 -89.0322 251° West 392 451 30,000  Level Memphis Center
Sun 08:51:40 PM 35.6919 -89.1581 253° West 392 451 30,000  Level Memphis Center
Sun 08:52:40 PM 35.6639 -89.2711 251° West 392 451 30,000  Level Memphis Center
Sun 08:53:40 PM 35.6272 -89.3992 250° West 392 451 30,000  Level Memphis Center
Sun 08:54:40 PM 35.5906 -89.5247 249° West 392 451 30,000  Level Memphis Center
Sun 08:55:40 PM 35.5519 -89.6503 251° West 392 451 30,000  Level Memphis Center
Sun 08:56:40 PM 35.5169 -89.7756 250° West 392 451 30,000  Level Memphis Center
Sun 08:57:40 PM 35.4781 -89.9033 249° West 392 451 30,000  Level Memphis Center
Sun 08:58:40 PM 35.4386 -90.0308 249° West 392 451 30,000  Level Memphis Center
Sun 08:59:40 PM 35.3972 -90.1661 251° West 392 451 30,000  Level Memphis Center
Sun 09:00:40 PM 35.3600 -90.2961 249° West 392 451 30,000  Level Memphis Center
Sun 09:01:40 PM 35.3203 -90.4206 250° West 392 451 30,000  Level Memphis Center
Sun 09:02:40 PM 35.2825 -90.5478 249° West 392 451 30,000  Level Memphis Center
Sun 09:03:40 PM 35.2428 -90.6750 249° West 397 457 30,000  Level Memphis Center
Sun 09:04:40 PM 35.2028 -90.7992 249° West 392 451 30,000  Level Memphis Center
Sun 09:05:40 PM 35.1647 -90.9208 250° West 385 443 30,000  Level Memphis Center
Sun 09:06:40 PM 35.1264 -91.0503 249° West 400 460 30,000  Level Memphis Center
Sun 09:07:40 PM 35.0881 -91.1717 249° West 400 460 30,000  Level Memphis Center
Sun 09:08:40 PM 35.0478 -91.2981 249° West 400 460 30,000  Level Memphis Center
Sun 09:09:40 PM 35.0114 -91.4119 248° West 400 460 30,000  Level Memphis Center
Sun 09:10:40 PM 34.9706 -91.5331 248° West 400 460 30,000  Level Memphis Center
Sun 09:11:40 PM 34.9297 -91.6589 249° West 400 460 30,000 -50 Level Memphis Center
Sun 09:12:40 PM 34.8908 -91.7825 248° West 400 460 29,900  Descending Memphis Center
Sun 09:13:40 PM 34.8497 -91.9058 250° West 400 460 30,000 50 Climbing Memphis Center
Sun 09:14:40 PM 34.8125 -92.0292 249° West 400 460 30,000  Level Memphis Center
Sun 09:15:40 PM 34.7733 -92.1522 247° West 400 460 30,000  Level Memphis Center
Sun 09:16:40 PM 34.7297 -92.2775 249° West 400 460 30,000  Level Memphis Center
Sun 09:17:40 PM 34.6903 -92.4006 248° West 395 455 30,000  Level Memphis Center
Sun 09:18:40 PM 34.6506 -92.5208 249° West 390 449 30,000  Level Memphis Center
Sun 09:19:40 PM 34.6108 -92.6483 249° West 395 455 30,000  Level Memphis Center
Sun 09:20:40 PM 34.5711 -92.7708 247° West 395 455 30,000  Level Memphis Center
Sun 09:21:40 PM 34.5289 -92.8933 248° West 395 455 30,000  Level Memphis Center
Sun 09:22:40 PM 34.4889 -93.0156 248° West 395 455 30,000  Level Memphis Center
Sun 09:23:40 PM 34.4442 -93.1525 248° West 390 449 30,000  Level Memphis Center
Sun 09:24:40 PM 34.4036 -93.2747 248° West 390 449 30,000  Level Memphis Center
Sun 09:26:24 PM 34.3331 -93.4878 251° West 394 453 30,000  Level Fort Worth Center
Sun 09:27:24 PM 34.2975 -93.6150 251° West 394 453 30,000  Level Fort Worth Center
Sun 09:28:24 PM 34.2614 -93.7397 251° West 394 453 30,000  Level Fort Worth Center
Sun 09:29:24 PM 34.2256 -93.8669 251° West 394 453 30,000  Level Fort Worth Center
Sun 09:30:24 PM 34.1894 -93.9914 251° West 394 453 30,000  Level Fort Worth Center
Sun 09:31:24 PM 34.1550 -94.1156 252° West 394 453 30,000  Level Fort Worth Center
Sun 09:32:24 PM 34.1208 -94.2425 248° West 394 453 30,000  Level Fort Worth Center
Sun 09:33:24 PM 34.0800 -94.3644 248° West 394 453 30,000  Level Fort Worth Center
Sun 09:34:24 PM 34.0372 -94.4936 249° West 400 460 30,000  Level Fort Worth Center
Sun 09:35:24 PM 33.9983 -94.6153 248° West 393 452 30,000  Level Fort Worth Center
Sun 09:36:24 PM 33.9569 -94.7367 249° West 398 458 30,000  Level Fort Worth Center
Sun 09:37:24 PM 33.9158 -94.8631 249° West 403 464 30,000  Level Fort Worth Center
Sun 09:38:24 PM 33.8744 -94.9894 248° West 408 470 30,000 -100 Level Fort Worth Center
Sun 09:39:24 PM 33.8331 -95.1131 247° West 408 470 29,800 -700 Descending Fort Worth Center
Sun 09:40:24 PM 33.7894 -95.2392 249° West 408 470 28,600 -1,350 Descending Fort Worth Center
Sun 09:41:24 PM 33.7497 -95.3625 248° West 408 470 27,100 -1,700 Descending Fort Worth Center
Sun 09:42:24 PM 33.7078 -95.4858 252° West 408 470 25,200 -2,250 Descending Fort Worth Center
Sun 09:43:24 PM 33.6742 -95.6089 248° West 403 464 22,600 -2,550 Descending Fort Worth Center
Sun 09:44:24 PM 33.6319 -95.7319 246° West 391 450 20,100 -2,500 Descending Fort Worth Center
Sun 09:45:24 PM 33.5917 -95.8425 247° West 385 443 17,600 -2,400 Descending Fort Worth Center
Sun 09:46:24 PM 33.5533 -95.9528 248° West 369 425 15,300 -2,050 Descending Fort Worth Center
Sun 09:47:24 PM 33.5192 -96.0531 253° West 362 417 13,500 -1,765 Descending Fort Worth Center
Sun 09:48:06 PM 33.4972 -96.1369 248° West 350 403 12,300 -1,610 Descending FAA TRACON SMA TRACON (SMA)
Sun 09:48:46 PM 33.4717 -96.2117 247° West 349 402 11,300 -975 Descending FAA TRACON SMA TRACON (SMA)
Sun 09:49:26 PM 33.4467 -96.2825 247° West 332 382 11,000 -222 Descending FAA TRACON SMA TRACON (SMA)
Sun 09:50:07 PM 33.4239 -96.3456 247° West 301 346 11,000  Level FAA TRACON SMA TRACON (SMA)
Sun 09:50:46 PM 33.4053 -96.3978 225° Southwest 277 319 11,000 -76 Level FAA TRACON SMA TRACON (SMA)
Sun 09:51:26 PM 33.3678 -96.4431 224° Southwest 277 319 10,900 -675 Descending FAA TRACON SMA TRACON (SMA)
Sun 09:52:06 PM 33.3342 -96.4825 225° Southwest 274 315 10,100 -1,350 Descending FAA TRACON SMA TRACON (SMA)
Sun 09:52:46 PM 33.2972 -96.5272 224° Southwest 273 314 9,100 -1,481 Descending FAA TRACON SMA TRACON (SMA)
Sun 09:53:27 PM 33.2600 -96.5703 237° Southwest 267 307 8,100 -1,556 Descending FAA TRACON SMA TRACON (SMA)
Sun 09:54:07 PM 33.2358 -96.6147 245° Southwest 265 305 7,000 -1,671 Descending FAA TRACON SMA TRACON (SMA)
Sun 09:54:46 PM 33.2144 -96.6689 242° Southwest 261 300 5,900 -1,443 Descending FAA TRACON SMA TRACON (SMA)
Sun 09:55:26 PM 33.1911 -96.7206 242° Southwest 256 295 5,100 -675 Descending FAA TRACON SMA TRACON (SMA)
Sun 09:56:06 PM 33.1703 -96.7667 241° Southwest 256 295 5,000 -74 Descending FAA TRACON SMA TRACON (SMA)
Sun 09:56:47 PM 33.1464 -96.8183 242° Southwest 256 295 5,000  Level FAA TRACON SMA TRACON (SMA)
Sun 09:57:27 PM 33.1239 -96.8694 241° Southwest 253 291 5,000 -532 Level FAA TRACON SMA TRACON (SMA)
Sun 09:58:06 PM 33.1042 -96.9119 243° Southwest 235 270 4,300 -684 Descending FAA TRACON SMA TRACON (SMA)
Sun 09:58:46 PM 33.0856 -96.9547 241° Southwest 206 237 4,100 -593 Descending FAA TRACON SMA TRACON (SMA)
Sun 09:59:27 PM 33.0675 -96.9933 237° Southwest 190 219 3,500 -815 Descending FAA TRACON SMA TRACON (SMA)
Sun 10:00:07 PM 33.0497 -97.0261 226° Southwest 165 190 3,000 -450 Descending FAA TRACON SMA TRACON (SMA)
Sun 10:00:47 PM 33.0308 -97.0497 188° South 159 183 2,900 -532 Descending FAA TRACON SMA TRACON (SMA)
Sun 10:01:26 PM 33.0011 -97.0544 180° South 158 182 2,300 -835 Descending FAA TRACON SMA TRACON (SMA)
Sun 10:02:06 PM 32.9769 -97.0544 180° South 138 159 1,800 -750 Descending FAA TRACON SMA TRACON (SMA)

Login

Don't have an account? Register now (free) for customized features, flight alerts, and more!